Time;durP1;ratioP1;P1;durP2;ratioP2;P2;SDS_P1;SDS_P2;PMS_P1;PMS_P2;Temp;Humidity;BMP_temperature;BMP_pressure;BME280_temperature;BME280_humidity;BME280_pressure;Samples;Min_cycle;Max_cycle;Signal;HPM_P1;HPM_P2
2023/03/23 00:01:19;;;;;;;0.30;0.30;;;;;;;25.46;32.93;98936.38;1856433;74;28052;-51
2023/03/23 00:04:05;;;;;;;0.28;0.28;;;;;;;25.44;32.95;98931.66;1859749;76;28157;-53
2023/03/23 00:06:54;;;;;;;0.20;0.20;;;;;;;25.43;32.94;98943.73;1852880;75;28052;-48
2023/03/23 00:09:42;;;;;;;0.25;0.25;;;;;;;25.44;32.96;98938.53;1856840;77;28199;-48
2023/03/23 00:12:35;;;;;;;0.40;0.40;;;;;;;25.40;32.98;98942.34;1856987;77;28214;-49
2023/03/23 00:15:24;;;;;;;0.50;0.50;;;;;;;25.41;33.00;98944.55;1839976;77;30145;-51
2023/03/23 00:18:20;;;;;;;0.40;0.40;;;;;;;25.41;32.99;98942.61;1846918;76;28103;-52
2023/03/23 00:21:03;;;;;;;0.37;0.37;;;;;;;25.41;32.97;98943.98;1856852;77;28185;-51
2023/03/23 00:23:53;;;;;;;0.45;0.35;;;;;;;25.40;33.03;98949.22;1856913;77;28173;-50
2023/03/23 00:26:42;;;;;;;0.30;0.30;;;;;;;25.41;33.03;98959.11;1857116;77;28100;-50
2023/03/23 00:29:31;;;;;;;0.30;0.30;;;;;;;25.39;33.01;98954.42;1856869;74;28673;-51
2023/03/23 00:32:27;;;;;;;0.40;0.40;;;;;;;25.38;33.06;98955.53;1857038;77;28175;-50
2023/03/23 00:35:14;;;;;;;0.20;0.20;;;;;;;25.37;33.06;98959.91;1856963;77;28224;-52
2023/03/23 00:38:04;;;;;;;0.37;0.37;;;;;;;25.39;33.04;98960.50;1856567;77;28061;-50
2023/03/23 00:40:53;;;;;;;0.35;0.35;;;;;;;25.38;33.09;98961.58;1857061;77;28068;-48
2023/03/23 00:43:43;;;;;;;0.45;0.45;;;;;;;25.38;33.08;98964.33;1834964;77;28103;-52
2023/03/23 00:46:31;;;;;;;0.37;0.37;;;;;;;25.37;33.10;98966.78;1868649;76;28115;-53
2023/03/23 00:49:25;;;;;;;0.33;0.33;;;;;;;25.37;33.13;98970.91;1851676;76;28063;-51
2023/03/23 00:52:12;;;;;;;0.42;0.42;;;;;;;25.37;33.12;98969.53;1856996;77;28118;-50
2023/03/23 00:55:00;;;;;;;0.20;0.20;;;;;;;25.35;33.16;98966.22;1856821;77;28064;-48
2023/03/23 00:57:50;;;;;;;0.25;0.25;;;;;;;25.37;33.18;98970.91;1868756;76;28060;-52
2023/03/23 01:00:40;;;;;;;0.40;0.40;;;;;;;25.37;33.20;98970.91;1850785;76;28088;-51
2023/03/23 01:03:29;;;;;;;0.33;0.33;;;;;;;25.35;33.26;98965.68;1856891;77;28123;-50
2023/03/23 01:06:21;;;;;;;0.20;0.20;;;;;;;25.35;33.23;98964.30;1856991;77;28124;-51
2023/03/23 01:09:16;;;;;;;0.40;0.40;;;;;;;25.34;33.26;98964.02;1868763;76;28107;-53
2023/03/23 01:12:05;;;;;;;0.30;0.30;;;;;;;25.34;33.23;98957.14;1868565;76;28130;-52
2023/03/23 01:14:54;;;;;;;0.40;0.40;;;;;;;25.34;33.30;98953.59;1856742;77;28513;-49
2023/03/23 01:17:44;;;;;;;0.25;0.25;;;;;;;25.33;33.35;98955.50;1864248;76;28151;-48
2023/03/23 01:20:33;;;;;;;0.60;0.50;;;;;;;25.33;33.31;98949.17;1824282;78;38523;-48
2023/03/23 01:23:21;;;;;;;0.68;0.40;;;;;;;25.35;33.33;98966.22;1851655;76;28111;-51
2023/03/23 01:26:16;;;;;;;0.40;0.40;;;;;;;25.33;33.30;98968.41;1856820;77;28186;-50
2023/03/23 01:29:05;;;;;;;0.40;0.35;;;;;;;25.30;33.30;98949.14;1856688;77;28204;-50
2023/03/23 01:31:53;;;;;;;0.40;0.30;;;;;;;25.31;33.33;98954.11;1876626;76;28181;-50
2023/03/23 01:34:41;;;;;;;0.50;0.50;;;;;;;25.29;33.37;98946.67;1860096;76;28152;-50
2023/03/23 01:37:32;;;;;;;0.37;0.37;;;;;;;25.30;33.34;98939.53;1877757;76;28099;-49
2023/03/23 01:40:22;;;;;;;0.30;0.30;;;;;;;25.32;33.36;98932.41;1877717;76;28091;-51
2023/03/23 01:43:14;;;;;;;1.60;0.40;;;;;;;25.31;33.37;98934.32;1858060;76;28190;-50
2023/03/23 01:46:04;;;;;;;0.98;0.30;;;;;;;25.30;33.38;98934.56;1836995;77;28148;-52
2023/03/23 01:48:53;;;;;;;0.50;0.50;;;;;;;25.29;33.38;98923.31;1875582;76;38539;-52
2023/03/23 01:51:50;;;;;;;0.30;0.30;;;;;;;25.29;33.38;98930.18;1875359;76;28441;-52
2023/03/23 01:54:44;;;;;;;0.30;0.30;;;;;;;25.24;33.37;98910.91;1865790;76;28052;-49
2023/03/23 01:57:31;;;;;;;0.40;0.40;;;;;;;25.25;33.42;98916.13;1861607;76;28178;-47
2023/03/23 02:00:22;;;;;;;0.30;0.30;;;;;;;25.27;33.42;98919.46;1878034;76;28103;-51
2023/03/23 02:03:15;;;;;;;1.50;0.40;;;;;;;25.29;33.42;98922.77;1855419;76;38476;-53
2023/03/23 02:06:04;;;;;;;0.40;0.40;;;;;;;25.28;33.42;98916.97;1877872;76;28047;-50
2023/03/23 02:09:06;;;;;;;0.35;0.35;;;;;;;25.29;33.43;98905.44;1853750;76;28201;-51
2023/03/23 02:11:55;;;;;;;0.30;0.30;;;;;;;25.25;33.43;98885.88;1857613;76;28063;-50
2023/03/23 02:14:43;;;;;;;0.40;0.40;;;;;;;25.24;33.46;98890.28;1877773;76;28209;-53
2023/03/23 02:17:38;;;;;;;0.30;0.30;;;;;;;25.25;33.45;98897.45;1873956;76;28141;-51
2023/03/23 02:20:41;;;;;;;0.40;0.40;;;;;;;25.23;33.49;98899.61;1875477;76;28149;-52
2023/03/23 02:23:36;;;;;;;0.50;0.40;;;;;;;25.24;33.52;98897.16;1862058;76;28102;-49
2023/03/23 02:26:49;;;;;;;0.45;0.45;;;;;;;25.24;33.46;98891.66;1878118;76;28080;-50
2023/03/23 02:29:58;;;;;;;0.30;0.30;;;;;;;25.24;33.52;98887.53;1856853;76;28180;-49
2023/03/23 02:32:54;;;;;;;0.40;0.40;;;;;;;25.21;33.55;98896.30;1870345;76;28092;-50
2023/03/23 02:35:57;;;;;;;0.30;0.30;;;;;;;25.20;33.62;98893.30;1846638;76;28556;-50
2023/03/23 02:38:55;;;;;;;0.50;0.45;;;;;;;25.23;33.58;98877.62;1868785;76;28064;-50
2023/03/23 02:41:47;;;;;;;0.40;0.40;;;;;;;25.20;33.59;98879.55;1868900;76;35261;-51
2023/03/23 02:44:39;;;;;;;0.20;0.20;;;;;;;25.18;33.64;98875.67;1853014;76;28514;-53
2023/03/23 02:47:30;;;;;;;0.30;0.30;;;;;;;25.21;33.64;98864.69;1847865;76;28115;-51
2023/03/23 02:50:23;;;;;;;0.40;0.30;;;;;;;25.20;33.66;98868.55;1868503;76;28106;-49
2023/03/23 02:53:14;;;;;;;1.40;0.30;;;;;;;25.21;33.67;98866.06;1868936;76;31087;-50
2023/03/23 02:56:05;;;;;;;0.42;0.42;;;;;;;25.21;33.67;98866.91;1868810;76;28280;-47
2023/03/23 02:58:53;;;;;;;0.30;0.30;;;;;;;25.22;33.63;98869.95;1849314;76;28107;-50
2023/03/23 03:01:45;;;;;;;0.70;0.40;;;;;;;25.22;33.62;98873.23;1868609;76;28111;-50
2023/03/23 03:04:35;;;;;;;1.00;0.40;;;;;;;25.24;33.59;98872.42;1868712;76;28147;-46
2023/03/23 03:07:35;;;;;;;0.50;0.50;;;;;;;25.25;33.58;98875.46;1850618;76;28329;-48
2023/03/23 03:10:36;;;;;;;0.50;0.50;;;;;;;25.22;33.63;98872.70;1851681;76;30979;-52
2023/03/23 03:13:34;;;;;;;0.20;0.20;;;;;;;25.20;33.59;98863.89;1837500;77;28192;-48
2023/03/23 03:16:29;;;;;;;0.28;0.28;;;;;;;25.22;33.63;98860.33;1863444;76;28015;-52
2023/03/23 03:19:27;;;;;;;0.50;0.50;;;;;;;25.19;33.66;98866.34;1866020;76;28139;-48
2023/03/23 03:22:18;;;;;;;0.30;0.30;;;;;;;25.18;33.67;98861.12;1873501;74;28112;-49
2023/03/23 03:25:09;;;;;;;0.70;0.50;;;;;;;25.20;33.69;98867.18;1851779;76;28140;-50
2023/03/23 03:27:58;;;;;;;0.23;0.23;;;;;;;25.20;33.70;98858.94;1868802;76;28131;-53
2023/03/23 03:31:04;;;;;;;0.40;0.40;;;;;;;25.21;33.68;98857.28;1860850;76;28290;-53
2023/03/23 03:33:53;;;;;;;0.40;0.40;;;;;;;25.19;33.73;98853.14;1860506;76;28095;-48
2023/03/23 03:36:42;;;;;;;0.37;0.37;;;;;;;25.18;33.71;98853.69;1868883;76;28243;-49
2023/03/23 03:39:33;;;;;;;0.42;0.42;;;;;;;25.21;33.69;98859.20;1849292;76;30138;-48
2023/03/23 03:42:21;;;;;;;0.20;0.20;;;;;;;25.20;33.73;98857.56;1846658;76;28144;-52
2023/03/23 03:45:15;;;;;;;0.40;0.40;;;;;;;25.21;33.75;98860.57;1869131;76;28060;-50
2023/03/23 03:48:04;;;;;;;1.00;0.40;;;;;;;25.17;33.76;98863.04;1868835;76;28155;-49
2023/03/23 03:50:56;;;;;;;0.35;0.35;;;;;;;25.19;33.73;98854.52;1848989;76;28159;-51
2023/03/23 03:53:43;;;;;;;1.50;0.40;;;;;;;25.19;33.79;98860.02;1869105;76;28301;-51
2023/03/23 03:56:35;;;;;;;0.70;0.70;;;;;;;25.20;33.78;98854.81;1868912;76;28145;-47
2023/03/23 03:59:27;;;;;;;0.37;0.37;;;;;;;25.20;33.75;98849.31;1869004;76;28122;-47
2023/03/23 04:02:20;;;;;;;0.55;0.55;;;;;;;25.18;33.76;98850.13;1868944;76;28225;-52
2023/03/23 04:05:11;;;;;;;0.20;0.20;;;;;;;25.17;33.83;98856.17;1869015;76;28048;-53
2023/03/23 04:08:01;;;;;;;0.40;0.40;;;;;;;25.16;33.87;98857.25;1869054;76;28092;-49
2023/03/23 04:10:52;;;;;;;0.40;0.40;;;;;;;25.16;33.87;98848.17;1868998;76;28067;-50
2023/03/23 04:13:41;;;;;;;0.60;0.60;;;;;;;25.17;33.88;98845.72;1855733;76;28212;-49
2023/03/23 04:16:37;;;;;;;0.25;0.25;;;;;;;25.16;33.82;98853.13;1849915;75;30006;-50
2023/03/23 04:19:28;;;;;;;0.33;0.33;;;;;;;25.16;33.87;98850.37;1866846;74;28454;-50
2023/03/23 04:22:16;;;;;;;0.40;0.40;;;;;;;25.16;33.87;98840.76;1869152;76;28177;-51
2023/03/23 04:25:07;;;;;;;0.40;0.40;;;;;;;25.16;33.86;98839.38;1868941;76;28244;-48
2023/03/23 04:27:58;;;;;;;0.40;0.40;;;;;;;25.16;33.90;98846.80;1869019;76;28064;-50
2023/03/23 04:30:48;;;;;;;0.30;0.30;;;;;;;25.17;33.93;98842.97;1868794;76;28365;-50
2023/03/23 04:33:37;;;;;;;0.33;0.33;;;;;;;25.17;33.87;98845.72;1864652;75;28095;-50
2023/03/23 04:36:26;;;;;;;0.40;0.40;;;;;;;25.16;33.91;98847.63;1841021;77;28654;-48
2023/03/23 04:39:16;;;;;;;0.43;0.43;;;;;;;25.14;33.96;98847.08;1856512;77;28060;-49
2023/03/23 04:42:05;;;;;;;0.40;0.40;;;;;;;25.15;33.88;98842.41;1852336;77;28280;-48
2023/03/23 04:45:12;;;;;;;0.20;0.20;;;;;;;25.16;33.90;98842.67;1849140;77;28111;-48
2023/03/23 04:48:04;;;;;;;0.50;0.50;;;;;;;25.11;33.98;98830.30;1868594;76;28056;-53
2023/03/23 04:50:54;;;;;;;0.35;0.35;;;;;;;25.12;33.98;98831.94;1824983;77;28236;-50
2023/03/23 04:53:44;;;;;;;0.40;0.40;;;;;;;25.12;33.93;98838.81;1832772;77;28160;-52
2023/03/23 04:56:32;;;;;;;0.30;0.30;;;;;;;25.13;33.94;98840.48;1853906;77;28174;-49
2023/03/23 04:59:27;;;;;;;0.40;0.40;;;;;;;25.13;33.97;98841.86;1843158;77;28100;-48
2023/03/23 05:02:17;;;;;;;0.40;0.40;;;;;;;25.14;33.98;98850.36;1838920;76;28356;-51
2023/03/23 05:05:08;;;;;;;0.50;0.50;;;;;;;25.13;33.95;98855.06;1865349;76;28260;-52
2023/03/23 05:07:57;;;;;;;0.57;0.57;;;;;;;25.11;34.00;98853.67;1854205;77;28156;-49
2023/03/23 05:10:56;;;;;;;0.57;0.57;;;;;;;25.11;33.99;98854.47;1868512;76;28122;-46
2023/03/23 05:13:46;;;;;;;0.40;0.40;;;;;;;25.10;34.00;98854.20;1868724;76;28043;-48
2023/03/23 05:16:37;;;;;;;0.40;0.40;;;;;;;25.12;33.98;98853.93;1868652;76;28236;-52
2023/03/23 05:19:25;;;;;;;0.40;0.40;;;;;;;25.12;33.95;98852.55;1868878;76;29998;-47
2023/03/23 05:22:15;;;;;;;0.65;0.57;;;;;;;25.11;33.99;98855.04;1847977;76;28168;-50
2023/03/23 05:25:12;;;;;;;0.30;0.30;;;;;;;25.11;33.96;98848.17;1856850;77;28175;-52
2023/03/23 05:28:00;;;;;;;0.30;0.30;;;;;;;25.09;33.96;98851.16;1843498;77;28261;-47
2023/03/23 05:30:53;;;;;;;0.30;0.30;;;;;;;25.09;34.01;98855.83;1856884;75;28101;-52
2023/03/23 05:33:42;;;;;;;0.37;0.37;;;;;;;25.10;33.97;98854.75;1856941;77;28118;-49
2023/03/23 05:36:32;;;;;;;0.40;0.40;;;;;;;25.09;34.00;98849.79;1857006;77;28148;-49
2023/03/23 05:39:23;;;;;;;0.47;0.47;;;;;;;25.10;34.03;98846.50;1840430;76;28139;-47
2023/03/23 05:42:32;;;;;;;0.40;0.40;;;;;;;25.10;34.04;98858.87;1842168;77;28189;-48
2023/03/23 05:45:22;;;;;;;0.60;0.47;;;;;;;25.04;34.11;98864.87;1841341;77;28350;-52
2023/03/23 05:48:12;;;;;;;0.40;0.40;;;;;;;25.03;34.09;98861.02;1850294;76;28158;-52
2023/03/23 05:51:00;;;;;;;0.30;0.30;;;;;;;25.06;34.08;98859.97;1856715;77;28116;-54
2023/03/23 05:53:49;;;;;;;0.47;0.47;;;;;;;25.06;34.09;98866.00;1856821;77;28104;-49
2023/03/23 05:56:39;;;;;;;0.57;0.57;;;;;;;25.06;34.09;98865.45;1849978;77;28171;-50
2023/03/23 05:59:29;;;;;;;1.30;0.47;;;;;;;25.07;34.10;98873.13;1860336;75;28108;-52
2023/03/23 06:02:18;;;;;;;0.50;0.50;;;;;;;25.05;34.11;98874.78;1846233;76;28074;-51
2023/03/23 06:05:07;;;;;;;0.40;0.40;;;;;;;25.05;34.18;98873.95;1857191;76;28636;-49
2023/03/23 06:07:56;;;;;;;0.40;0.40;;;;;;;25.00;34.10;98873.37;1839725;76;28137;-49
2023/03/23 06:10:45;;;;;;;0.40;0.40;;;;;;;25.06;34.12;98894.85;1842572;77;28221;-48
2023/03/23 06:13:35;;;;;;;0.45;0.45;;;;;;;25.05;34.18;98896.77;1838571;77;28057;-52
2023/03/23 06:16:25;;;;;;;0.35;0.35;;;;;;;25.08;34.13;98890.75;1856713;77;28068;-54
2023/03/23 06:19:18;;;;;;;0.50;0.50;;;;;;;25.12;33.84;98897.91;1846175;76;28145;-55
2023/03/23 06:22:15;;;;;;;0.50;0.50;;;;;;;25.09;32.88;98892.92;1868412;76;28113;-48
2023/03/23 06:25:07;;;;;;;0.60;0.60;;;;;;;25.08;32.41;98896.25;1856787;77;28152;-49
2023/03/23 06:27:57;;;;;;;0.50;0.50;;;;;;;25.07;32.39;98894.58;1840083;76;28100;-50
2023/03/23 06:30:46;;;;;;;0.53;0.53;;;;;;;25.07;32.40;98885.50;1834798;77;28104;-54
2023/03/23 06:33:36;;;;;;;0.57;0.57;;;;;;;25.03;32.33;98903.08;1855620;77;28101;-55
2023/03/23 06:36:29;;;;;;;0.68;0.65;;;;;;;25.05;32.40;98895.39;1838792;75;28087;-54
2023/03/23 06:39:20;;;;;;;0.50;0.50;;;;;;;25.04;32.54;98900.59;1876023;74;28157;-55
2023/03/23 06:42:13;;;;;;;0.50;0.50;;;;;;;25.02;32.62;98906.10;1876401;76;28493;-55
2023/03/23 06:45:05;;;;;;;0.80;0.50;;;;;;;25.03;32.67;98905.83;1878165;76;28118;-54
2023/03/23 06:47:54;;;;;;;0.75;0.75;;;;;;;25.03;32.77;98896.75;1878156;76;28691;-53
2023/03/23 06:50:47;;;;;;;0.95;0.57;;;;;;;25.04;32.80;98901.17;1857720;76;28135;-54
2023/03/23 06:53:37;;;;;;;0.50;0.50;;;;;;;25.03;32.79;98900.33;1877998;76;28142;-53
2023/03/23 06:56:27;;;;;;;0.80;0.60;;;;;;;25.04;32.91;98899.80;1877876;76;28197;-54
2023/03/23 06:59:16;;;;;;;0.50;0.50;;;;;;;25.04;32.96;98897.05;1878142;76;28095;-53
2023/03/23 07:02:04;;;;;;;1.00;0.60;;;;;;;25.06;33.00;98900.35;1857844;76;28126;-53
2023/03/23 07:04:54;;;;;;;0.50;0.50;;;;;;;25.03;33.02;98904.99;1878222;76;28159;-54
2023/03/23 07:07:44;;;;;;;0.60;0.60;;;;;;;25.04;33.09;98908.84;1876860;76;28067;-55
2023/03/23 07:10:34;;;;;;;0.50;0.50;;;;;;;25.06;33.08;98907.22;1860951;76;28148;-54
2023/03/23 07:13:25;;;;;;;0.40;0.40;;;;;;;25.07;33.06;98890.45;1875633;76;28215;-53
2023/03/23 07:16:14;;;;;;;0.40;0.40;;;;;;;25.06;33.11;98897.06;1878004;76;28138;-51
2023/03/23 07:19:03;;;;;;;1.20;0.57;;;;;;;25.08;33.10;98900.37;1878183;76;28133;-55
2023/03/23 07:21:51;;;;;;;0.50;0.50;;;;;;;25.08;33.10;98902.28;1877997;76;28129;-55
2023/03/23 07:24:42;;;;;;;1.77;0.50;;;;;;;25.06;33.26;98908.59;1866998;76;28422;-51
2023/03/23 07:27:32;;;;;;;0.50;0.50;;;;;;;25.07;33.59;98904.73;1872682;76;28095;-55
2023/03/23 07:30:22;;;;;;;1.80;0.50;;;;;;;25.06;33.77;98905.31;1867629;76;32951;-55
2023/03/23 07:33:11;;;;;;;0.53;0.53;;;;;;;25.08;34.13;98906.41;1884480;75;28031;-54
2023/03/23 07:36:03;;;;;;;0.47;0.47;;;;;;;25.09;34.34;98906.67;1878167;75;28106;-55
2023/03/23 07:38:51;;;;;;;9.25;0.75;;;;;;;25.06;34.43;98907.22;1850151;76;28308;-54
2023/03/23 07:41:40;;;;;;;1.20;0.60;;;;;;;25.07;34.44;98908.86;1866769;76;28115;-55
2023/03/23 07:44:30;;;;;;;0.50;0.50;;;;;;;25.06;34.57;98909.97;1877586;76;28175;-55
2023/03/23 07:47:18;;;;;;;0.50;0.50;;;;;;;25.09;34.59;98914.91;1865481;76;28186;-49
2023/03/23 07:50:11;;;;;;;0.50;0.50;;;;;;;25.08;34.58;98910.53;1845598;76;28119;-55
2023/03/23 07:53:00;;;;;;;0.70;0.60;;;;;;;25.10;34.65;98920.70;1855564;76;28176;-54
2023/03/23 07:55:51;;;;;;;0.50;0.50;;;;;;;25.08;34.63;98912.73;1861852;76;28065;-54
2023/03/23 07:58:45;;;;;;;0.50;0.50;;;;;;;25.08;34.57;98910.53;1858414;76;30080;-55
2023/03/23 08:01:34;;;;;;;0.50;0.40;;;;;;;25.09;34.65;98921.24;1878219;76;28117;-54
2023/03/23 08:04:27;;;;;;;0.40;0.40;;;;;;;25.10;34.63;98919.33;1852260;75;28466;-54
2023/03/23 08:07:31;;;;;;;0.80;0.50;;;;;;;25.07;34.59;98918.48;1878395;76;28088;-54
2023/03/23 08:10:31;;;;;;;0.60;0.60;;;;;;;25.05;34.64;98927.00;1878130;76;28160;-54
2023/03/23 08:13:22;;;;;;;0.40;0.40;;;;;;;25.03;34.70;98920.94;1866207;75;28071;-54
2023/03/23 08:16:13;;;;;;;0.40;0.40;;;;;;;25.03;34.68;98919.56;1878072;76;28067;-55
2023/03/23 08:19:05;;;;;;;0.40;0.40;;;;;;;25.03;34.75;98932.47;1878449;76;34992;-55
2023/03/23 08:22:10;;;;;;;2.43;0.73;;;;;;;25.03;34.68;98926.44;1878220;76;28161;-54
2023/03/23 08:25:00;;;;;;;0.40;0.40;;;;;;;25.03;34.68;98931.94;1878323;76;28122;-55
2023/03/23 08:28:05;;;;;;;1.00;0.93;;;;;;;25.04;34.63;98928.64;1838964;76;28181;-52
2023/03/23 08:30:52;;;;;;;0.60;0.50;;;;;;;25.03;34.59;98913.23;1878189;76;28196;-55
2023/03/23 08:33:51;;;;;;;0.53;0.53;;;;;;;25.05;34.56;98919.30;1878211;76;28123;-55
2023/03/23 08:36:43;;;;;;;0.50;0.50;;;;;;;25.03;34.55;98911.32;1876267;75;28524;-52
2023/03/23 08:39:37;;;;;;;0.55;0.55;;;;;;;25.06;34.48;98921.80;1860751;76;28103;-54
2023/03/23 08:42:27;;;;;;;0.50;0.50;;;;;;;25.06;34.54;98927.83;1854211;77;28331;-52
2023/03/23 08:45:23;;;;;;;0.73;0.40;;;;;;;25.05;34.54;98931.12;1855581;76;28113;-54
2023/03/23 08:48:13;;;;;;;0.33;0.33;;;;;;;25.06;34.50;98925.08;1878014;76;28126;-55
2023/03/23 08:51:12;;;;;;;0.35;0.35;;;;;;;25.07;34.49;98924.81;1857105;75;28153;-55
2023/03/23 08:54:19;;;;;;;0.60;0.60;;;;;;;25.07;34.50;98925.34;1863548;76;28095;-55
2023/03/23 08:57:27;;;;;;;0.70;0.60;;;;;;;25.02;34.51;98927.52;1854241;76;28226;-55
2023/03/23 09:00:21;;;;;;;1.10;0.70;;;;;;;25.02;34.50;98933.02;1877022;75;28315;-55
2023/03/23 09:03:28;;;;;;;0.40;0.40;;;;;;;25.04;34.50;98932.77;1878226;76;28159;-55
2023/03/23 09:06:22;;;;;;;0.70;0.40;;;;;;;25.01;34.49;98945.11;1867118;75;28174;-54
2023/03/23 09:09:11;;;;;;;0.60;0.60;;;;;;;25.02;34.50;98942.63;1856827;76;28141;-54
2023/03/23 09:11:59;;;;;;;0.50;0.50;;;;;;;25.04;34.34;98941.81;1878363;76;28068;-52
2023/03/23 09:14:47;;;;;;;0.50;0.50;;;;;;;25.05;34.36;98941.28;1877430;76;28649;-55
2023/03/23 09:17:38;;;;;;;0.50;0.50;;;;;;;25.06;34.32;98948.44;1874446;76;28170;-54
2023/03/23 09:20:28;;;;;;;0.45;0.45;;;;;;;25.07;34.32;98950.08;1864435;76;28131;-55
2023/03/23 09:23:17;;;;;;;0.60;0.60;;;;;;;25.07;34.34;98954.20;1878001;76;28039;-54
2023/03/23 09:26:06;;;;;;;0.72;0.72;;;;;;;25.04;34.32;98962.42;1870338;76;28222;-53
2023/03/23 09:28:56;;;;;;;0.50;0.50;;;;;;;25.06;34.27;98968.52;1868930;76;28188;-55
2023/03/23 09:31:47;;;;;;;0.62;0.62;;;;;;;25.06;34.23;98970.43;1878122;76;28091;-53
2023/03/23 09:34:38;;;;;;;1.12;0.70;;;;;;;25.06;34.27;98962.19;1858524;76;28162;-54
2023/03/23 09:37:25;;;;;;;0.70;0.70;;;;;;;25.08;34.25;98973.73;1878039;76;28165;-55
2023/03/23 09:40:19;;;;;;;0.88;0.72;;;;;;;25.06;34.25;98969.89;1833759;75;28301;-54
2023/03/23 09:43:27;;;;;;;0.70;0.70;;;;;;;25.08;34.20;98969.08;1854129;76;28076;-55
2023/03/23 09:46:37;;;;;;;0.60;0.60;;;;;;;25.08;34.21;98973.73;1868706;76;31111;-54
2023/03/23 09:49:28;;;;;;;0.80;0.60;;;;;;;25.05;34.23;98972.34;1826113;78;28239;-54
2023/03/23 09:52:19;;;;;;;0.60;0.60;;;;;;;25.02;34.28;98976.18;1849333;76;28163;-52
2023/03/23 09:55:11;;;;;;;0.72;0.72;;;;;;;25.02;34.26;98963.24;1856719;77;28119;-53
2023/03/23 09:58:05;;;;;;;0.68;0.68;;;;;;;25.03;34.25;98964.91;1856866;77;28190;-56
2023/03/23 10:01:09;;;;;;;0.80;0.80;;;;;;;25.04;34.24;98981.66;1850276;76;28256;-54
2023/03/23 10:04:03;;;;;;;0.68;0.68;;;;;;;25.05;34.22;98975.62;1839845;77;28072;-56
2023/03/23 10:06:51;;;;;;;0.80;0.80;;;;;;;25.03;34.27;98979.19;1837729;77;28176;-51
2023/03/23 10:09:41;;;;;;;1.50;0.78;;;;;;;25.04;34.26;98990.48;1842611;76;28127;-57
2023/03/23 10:12:35;;;;;;;0.95;0.80;;;;;;;25.06;34.26;98989.66;1835484;77;28384;-56
2023/03/23 10:15:27;;;;;;;0.70;0.70;;;;;;;25.06;34.20;98985.00;1853357;76;28198;-56
2023/03/23 10:18:40;;;;;;;0.80;0.80;;;;;;;25.05;34.23;98981.96;1836767;77;28114;-53
2023/03/23 10:21:32;;;;;;;0.80;0.80;;;;;;;25.06;34.22;98995.16;1836437;77;28181;-55
2023/03/23 10:24:24;;;;;;;0.82;0.82;;;;;;;25.02;34.28;98989.34;1856874;77;28192;-53
2023/03/23 10:27:27;;;;;;;1.20;1.10;;;;;;;25.03;34.35;98989.64;1856724;77;28071;-53
2023/03/23 10:30:22;;;;;;;0.82;0.82;;;;;;;25.04;34.32;98991.85;1856908;77;28217;-55
2023/03/23 10:33:16;;;;;;;0.82;0.82;;;;;;;25.04;34.36;98992.66;1840582;77;28104;-55
2023/03/23 10:36:19;;;;;;;1.05;1.05;;;;;;;25.05;34.36;98996.23;1856934;77;28662;-55
2023/03/23 10:39:14;;;;;;;1.20;1.05;;;;;;;25.06;34.35;98988.30;1860793;76;28118;-56
2023/03/23 10:42:06;;;;;;;1.32;1.22;;;;;;;25.04;34.34;98984.41;1878198;76;28162;-52
2023/03/23 10:44:53;;;;;;;1.25;1.20;;;;;;;25.04;34.36;98978.91;1878222;76;28215;-55
2023/03/23 10:47:45;;;;;;;1.55;1.45;;;;;;;25.06;34.34;98983.63;1860544;76;28102;-56
2023/03/23 10:50:36;;;;;;;1.75;1.35;;;;;;;25.08;34.33;98980.61;1878133;76;28159;-54
2023/03/23 10:53:32;;;;;;;1.30;1.30;;;;;;;25.09;34.26;98978.96;1878375;76;28489;-54
2023/03/23 10:56:29;;;;;;;1.70;1.32;;;;;;;25.10;34.23;98973.76;1878312;76;28179;-54
2023/03/23 10:59:23;;;;;;;1.77;1.40;;;;;;;25.08;34.09;98977.86;1863636;76;28210;-55
2023/03/23 11:02:17;;;;;;;1.22;1.20;;;;;;;25.08;34.09;98977.86;1878374;76;28156;-55
2023/03/23 11:05:09;;;;;;;1.30;1.30;;;;;;;25.09;34.21;98974.00;1878359;76;28152;-56
2023/03/23 11:07:59;;;;;;;1.55;1.45;;;;;;;25.09;34.18;98968.51;1878336;76;35531;-55
2023/03/23 11:10:56;;;;;;;1.80;1.37;;;;;;;25.09;34.15;98965.22;1878093;76;28310;-55
2023/03/23 11:13:47;;;;;;;1.40;1.30;;;;;;;25.10;34.16;98964.68;1846487;77;38616;-53
2023/03/23 11:16:38;;;;;;;1.80;1.67;;;;;;;25.09;34.08;98961.63;1857114;76;28200;-53
2023/03/23 11:19:30;;;;;;;2.52;1.67;;;;;;;25.10;34.14;98964.68;1878383;76;28108;-53
2023/03/23 11:22:27;;;;;;;1.77;1.52;;;;;;;25.11;34.01;98958.91;1878247;76;31413;-56
2023/03/23 11:25:16;;;;;;;1.60;1.50;;;;;;;25.09;34.03;98955.59;1878176;76;28146;-56
2023/03/23 11:28:05;;;;;;;1.85;1.75;;;;;;;25.09;34.08;98949.27;1858137;76;28576;-53
2023/03/23 11:30:56;;;;;;;1.80;1.70;;;;;;;25.09;34.02;98947.89;1878006;76;28161;-53
2023/03/23 11:34:06;;;;;;;1.60;1.50;;;;;;;25.10;34.03;98945.44;1856018;76;28281;-53
2023/03/23 11:37:05;;;;;;;1.67;1.57;;;;;;;25.10;34.02;98934.45;1835057;77;28315;-55
2023/03/23 11:40:10;;;;;;;1.70;1.60;;;;;;;25.08;34.07;98933.34;1838209;76;28197;-55
2023/03/23 11:43:01;;;;;;;2.80;2.00;;;;;;;25.07;34.05;98939.09;1862472;76;28418;-54
2023/03/23 11:46:01;;;;;;;1.92;1.70;;;;;;;25.09;34.07;98938.27;1869405;76;28216;-53
2023/03/23 11:48:58;;;;;;;1.72;1.62;;;;;;;25.10;34.06;98932.53;1857047;76;28261;-53
2023/03/23 11:51:59;;;;;;;2.12;1.92;;;;;;;25.10;34.04;98936.66;1854448;76;28595;-52
2023/03/23 11:54:53;;;;;;;2.08;1.80;;;;;;;25.09;34.03;98926.74;1881411;76;28158;-54
2023/03/23 11:57:41;;;;;;;2.25;2.00;;;;;;;25.08;33.97;98920.15;1862276;76;28316;-56
2023/03/23 12:00:30;;;;;;;2.05;1.82;;;;;;;25.09;33.98;98919.87;1862446;76;28109;-54
2023/03/23 12:03:33;;;;;;;3.10;2.00;;;;;;;25.12;33.97;98919.89;1881559;76;28116;-52
2023/03/23 12:06:28;;;;;;;1.95;1.80;;;;;;;25.13;33.94;98918.81;1876591;75;28453;-55
2023/03/23 12:09:25;;;;;;;1.98;1.87;;;;;;;25.12;33.98;98914.39;1871226;76;28652;-55
2023/03/23 12:12:34;;;;;;;3.33;2.00;;;;;;;25.09;33.97;98902.00;1862553;76;28309;-56
2023/03/23 12:15:29;;;;;;;2.13;1.93;;;;;;;25.08;34.00;98903.66;1867037;76;28186;-55
2023/03/23 12:18:20;;;;;;;2.60;2.08;;;;;;;25.08;34.02;98913.28;1881532;76;28129;-54
2023/03/23 12:21:31;;;;;;;2.58;1.85;;;;;;;25.09;34.02;98909.41;1881539;76;28175;-55
2023/03/23 12:24:23;;;;;;;2.10;2.00;;;;;;;25.08;34.00;98898.16;1881606;76;28169;-55
2023/03/23 12:27:34;;;;;;;2.83;2.00;;;;;;;25.07;34.00;98889.63;1881558;76;28125;-55
2023/03/23 12:30:42;;;;;;;3.20;2.30;;;;;;;25.09;33.99;98890.18;1881581;75;28169;-55
2023/03/23 12:33:55;;;;;;;1.98;1.87;;;;;;;25.06;34.03;98883.86;1869523;76;28248;-54
2023/03/23 12:37:08;;;;;;;3.10;2.00;;;;;;;25.04;34.03;98881.93;1819541;78;28380;-54
2023/03/23 12:40:27;;;;;;;1.87;1.77;;;;;;;25.03;34.04;98878.34;1842621;77;28320;-53
2023/03/23 12:43:27;;;;;;;2.45;2.25;;;;;;;25.02;34.02;98875.88;1821814;78;28675;-57
2023/03/23 12:46:21;;;;;;;2.20;2.10;;;;;;;25.00;34.00;98874.75;1802798;79;28326;-54
2023/03/23 12:49:15;;;;;;;2.25;2.02;;;;;;;25.01;34.05;98875.05;1803104;79;28225;-54
2023/03/23 12:52:21;;;;;;;2.98;2.15;;;;;;;25.04;33.99;98867.62;1830861;78;28168;-55
2023/03/23 12:55:44;;;;;;;2.05;1.95;;;;;;;25.05;33.99;98865.70;1826815;78;28221;-55
2023/03/23 12:58:36;;;;;;;1.98;1.87;;;;;;;25.04;33.95;98858.58;1830477;78;28309;-55
2023/03/23 13:01:33;;;;;;;2.30;2.20;;;;;;;25.02;33.91;98853.32;1830057;78;28128;-54
2023/03/23 13:04:25;;;;;;;2.17;2.00;;;;;;;25.04;33.89;98847.58;1801257;79;28301;-52
2023/03/23 13:07:23;;;;;;;3.05;2.77;;;;;;;25.04;33.91;98844.27;1818017;78;28143;-54
2023/03/23 13:10:15;;;;;;;2.80;2.30;;;;;;;25.05;33.92;98834.10;1803082;79;28727;-55
2023/03/23 13:13:04;;;;;;;2.33;2.10;;;;;;;25.04;33.86;98837.96;1822985;78;28212;-54
2023/03/23 13:16:07;;;;;;;2.03;1.93;;;;;;;25.07;33.87;98836.03;1823912;78;28201;-54
2023/03/23 13:19:10;;;;;;;2.30;2.10;;;;;;;25.07;33.87;98836.03;1832954;78;28650;-52
2023/03/23 13:22:13;;;;;;;2.12;1.92;;;;;;;25.06;33.87;98830.27;1819739;78;28223;-56
2023/03/23 13:25:05;;;;;;;2.27;2.05;;;;;;;25.05;33.85;98832.73;1833027;78;28186;-55
2023/03/23 13:28:06;;;;;;;2.40;2.20;;;;;;;25.02;33.90;98838.78;1833106;78;28273;-57
2023/03/23 13:31:14;;;;;;;2.42;2.02;;;;;;;25.07;33.84;98823.66;1832912;78;28625;-54
2023/03/23 13:34:25;;;;;;;1.98;1.87;;;;;;;25.05;33.81;98814.87;1832835;78;28209;-54
2023/03/23 13:37:25;;;;;;;2.20;2.10;;;;;;;25.03;33.88;98811.56;1828448;78;30249;-54